Time;durP1;ratioP1;P1;durP2;ratioP2;P2;SDS_P1;SDS_P2;PMS_P1;PMS_P2;Temp;Humidity;BMP_temperature;BMP_pressure;BME280_temperature;BME280_humidity;BME280_pressure;Samples;Min_cycle;Max_cycle;Signal;HPM_P1;HPM_P2
2021/05/28 00:01:58;;;;;;;5.80;5.20;;;;;;;;;;4974438;28;20097;-70
2021/05/28 00:04:24;;;;;;;7.30;5.28;;;;;;;;;;4974114;28;20089;-70
2021/05/28 00:06:51;;;;;;;9.52;5.45;;;;;;;;;;4972962;28;20533;-69
2021/05/28 00:09:17;;;;;;;6.00;5.40;;;;;;;;;;4978336;28;20047;-69
2021/05/28 00:11:44;;;;;;;5.85;5.30;;;;;;;;;;4977768;28;20089;-69
2021/05/28 00:14:10;;;;;;;8.18;6.15;;;;;;;;;;4974123;28;20054;-69
2021/05/28 00:16:37;;;;;;;8.52;5.72;;;;;;;;;;4973789;28;20054;-69
2021/05/28 00:19:04;;;;;;;8.60;6.50;;;;;;;;;;4976138;28;20086;-69
2021/05/28 00:21:30;;;;;;;8.73;6.78;;;;;;;;;;4993190;28;20535;-69
2021/05/28 00:23:57;;;;;;;8.90;7.03;;;;;;;;;;4993264;28;20092;-69
2021/05/28 00:26:24;;;;;;;7.97;6.82;;;;;;;;;;4993116;28;20137;-70
2021/05/28 00:28:50;;;;;;;10.18;6.97;;;;;;;;;;4992898;28;20084;-70
2021/05/28 00:31:20;;;;;;;7.97;6.72;;;;;;;;;;4993250;28;20073;-70
2021/05/28 00:33:47;;;;;;;9.60;7.72;;;;;;;;;;4993487;28;20118;-70
2021/05/28 00:36:14;;;;;;;7.30;6.00;;;;;;;;;;4992923;28;20070;-69
2021/05/28 00:38:40;;;;;;;8.85;7.90;;;;;;;;;;4980979;28;20141;-69
2021/05/28 00:41:07;;;;;;;9.18;8.07;;;;;;;;;;4972577;28;20082;-70
2021/05/28 00:43:33;;;;;;;9.15;7.53;;;;;;;;;;4989547;28;20492;-69
2021/05/28 00:46:00;;;;;;;8.40;7.25;;;;;;;;;;4992789;28;20089;-69
2021/05/28 00:48:27;;;;;;;9.02;8.13;;;;;;;;;;4982183;28;20105;-70
2021/05/28 00:50:53;;;;;;;9.27;7.75;;;;;;;;;;4973611;28;20098;-69
2021/05/28 00:53:21;;;;;;;9.63;7.18;;;;;;;;;;4973394;28;20194;-69
2021/05/28 00:55:47;;;;;;;8.63;7.72;;;;;;;;;;4972113;28;20101;-69
2021/05/28 00:58:14;;;;;;;8.75;7.82;;;;;;;;;;4980836;28;20089;-69
2021/05/28 01:00:40;;;;;;;10.23;7.68;;;;;;;;;;4991684;28;20089;-70
2021/05/28 01:03:07;;;;;;;9.02;7.75;;;;;;;;;;4992685;28;20145;-70
2021/05/28 01:05:33;;;;;;;9.25;8.07;;;;;;;;;;4992247;28;20085;-69
2021/05/28 01:08:00;;;;;;;10.50;8.23;;;;;;;;;;4992306;28;20528;-69
2021/05/28 01:10:27;;;;;;;8.35;7.50;;;;;;;;;;4992641;28;20084;-69
2021/05/28 01:13:02;;;;;;;9.05;7.22;;;;;;;;;;4992630;28;20087;-70
2021/05/28 01:15:28;;;;;;;8.27;6.35;;;;;;;;;;4992314;28;20465;-70
2021/05/28 01:17:55;;;;;;;11.43;8.18;;;;;;;;;;4989961;28;20105;-69
2021/05/28 01:20:22;;;;;;;7.60;6.60;;;;;;;;;;4973048;28;20081;-70
2021/05/28 01:22:48;;;;;;;9.70;6.97;;;;;;;;;;4973045;28;20086;-69
2021/05/28 01:25:15;;;;;;;9.27;7.03;;;;;;;;;;4972899;28;20137;-69
2021/05/28 01:27:41;;;;;;;8.35;6.82;;;;;;;;;;4972178;28;20086;-70
2021/05/28 01:30:08;;;;;;;10.07;7.25;;;;;;;;;;4973123;28;20227;-70
2021/05/28 01:32:35;;;;;;;9.00;7.60;;;;;;;;;;4972741;28;20141;-70
2021/05/28 01:35:02;;;;;;;8.75;7.40;;;;;;;;;;4972746;28;20561;-70
2021/05/28 01:37:29;;;;;;;9.20;7.50;;;;;;;;;;4984463;28;20085;-69
2021/05/28 01:39:55;;;;;;;10.38;8.15;;;;;;;;;;4992398;28;20046;-70
2021/05/28 01:42:22;;;;;;;9.27;7.28;;;;;;;;;;4992084;28;20108;-69
2021/05/28 01:44:49;;;;;;;8.50;7.22;;;;;;;;;;4988938;28;20047;-69
2021/05/28 01:47:15;;;;;;;10.23;8.02;;;;;;;;;;4978368;28;20089;-69
2021/05/28 01:49:43;;;;;;;10.90;7.40;;;;;;;;;;4992005;28;20089;-69
2021/05/28 01:52:11;;;;;;;10.75;7.88;;;;;;;;;;4992349;28;20046;-69
2021/05/28 01:54:39;;;;;;;10.88;8.05;;;;;;;;;;4991958;28;20153;-69
2021/05/28 01:57:07;;;;;;;11.40;7.97;;;;;;;;;;4991860;28;20090;-69
2021/05/28 01:59:34;;;;;;;9.60;7.78;;;;;;;;;;4992007;28;20096;-69
2021/05/28 02:02:00;;;;;;;9.68;7.30;;;;;;;;;;4992181;28;20078;-69
2021/05/28 02:04:27;;;;;;;8.85;7.32;;;;;;;;;;4991834;28;20047;-69
2021/05/28 02:06:54;;;;;;;9.20;7.80;;;;;;;;;;4991844;28;20082;-69
2021/05/28 02:09:21;;;;;;;9.40;7.07;;;;;;;;;;4991834;28;20090;-69
2021/05/28 02:11:48;;;;;;;8.60;7.25;;;;;;;;;;4991867;28;20162;-69
2021/05/28 02:14:15;;;;;;;10.57;7.78;;;;;;;;;;4992163;28;20403;-70
2021/05/28 02:16:41;;;;;;;7.20;6.50;;;;;;;;;;4991891;28;20502;-69
2021/05/28 02:19:09;;;;;;;8.77;6.47;;;;;;;;;;4998784;28;20088;-70
2021/05/28 02:21:36;;;;;;;9.10;7.32;;;;;;;;;;4995829;28;20058;-69
2021/05/28 02:24:04;;;;;;;9.07;6.80;;;;;;;;;;4988114;28;20051;-69
2021/05/28 02:26:30;;;;;;;8.60;7.30;;;;;;;;;;4990965;28;20051;-69
2021/05/28 02:28:57;;;;;;;8.45;7.22;;;;;;;;;;4991348;28;20054;-69
2021/05/28 02:31:23;;;;;;;7.85;7.05;;;;;;;;;;4987874;28;20055;-69
2021/05/28 02:33:50;;;;;;;8.52;7.53;;;;;;;;;;4986839;28;20051;-69
2021/05/28 02:36:16;;;;;;;8.90;6.75;;;;;;;;;;4986269;28;20046;-69
2021/05/28 02:38:43;;;;;;;7.97;6.38;;;;;;;;;;4987069;28;20502;-70
2021/05/28 02:41:09;;;;;;;8.45;6.05;;;;;;;;;;4991061;28;20054;-69
2021/05/28 02:43:36;;;;;;;8.52;6.45;;;;;;;;;;5002918;28;20064;-69
2021/05/28 02:46:03;;;;;;;7.07;5.22;;;;;;;;;;5001353;28;20050;-69
2021/05/28 02:48:30;;;;;;;7.38;5.60;;;;;;;;;;5001115;28;20058;-69
2021/05/28 02:50:56;;;;;;;6.95;5.32;;;;;;;;;;5001453;28;20093;-69
2021/05/28 02:53:23;;;;;;;6.95;6.10;;;;;;;;;;5001184;28;20110;-69
2021/05/28 02:55:49;;;;;;;7.75;5.63;;;;;;;;;;5000897;28;20043;-69
2021/05/28 02:58:16;;;;;;;9.38;6.28;;;;;;;;;;5001093;28;20050;-69
2021/05/28 03:00:42;;;;;;;7.38;6.13;;;;;;;;;;5001362;28;20050;-69
2021/05/28 03:03:09;;;;;;;8.18;6.05;;;;;;;;;;4999328;28;20077;-69
2021/05/28 03:05:36;;;;;;;9.43;5.53;;;;;;;;;;5000171;28;20538;-69
2021/05/28 03:08:02;;;;;;;8.82;5.60;;;;;;;;;;5000757;28;20077;-69
2021/05/28 03:10:29;;;;;;;6.65;5.40;;;;;;;;;;5000361;28;20082;-69
2021/05/28 03:12:56;;;;;;;7.80;5.80;;;;;;;;;;4999800;28;20058;-69
2021/05/28 03:15:22;;;;;;;7.45;5.65;;;;;;;;;;4998611;28;20050;-69
2021/05/28 03:17:49;;;;;;;7.43;6.03;;;;;;;;;;4999263;28;20054;-69
2021/05/28 03:20:32;;;;;;;7.78;5.35;;;;;;;;;;5000079;28;20077;-69
2021/05/28 03:22:58;;;;;;;6.57;5.72;;;;;;;;;;5013818;28;20054;-69
2021/05/28 03:25:25;;;;;;;6.15;4.63;;;;;;;;;;4994494;28;20050;-69
2021/05/28 03:27:53;;;;;;;5.97;4.78;;;;;;;;;;4981456;28;20093;-69
2021/05/28 03:30:20;;;;;;;5.78;4.50;;;;;;;;;;4980817;28;20078;-69
2021/05/28 03:32:47;;;;;;;5.28;4.57;;;;;;;;;;4979498;28;20513;-69
2021/05/28 03:35:14;;;;;;;5.28;4.28;;;;;;;;;;4955673;28;20471;-69
2021/05/28 03:37:40;;;;;;;5.95;4.95;;;;;;;;;;4955249;28;20105;-69
2021/05/28 03:40:08;;;;;;;7.07;4.38;;;;;;;;;;4955493;28;20051;-69
2021/05/28 03:42:35;;;;;;;7.25;5.30;;;;;;;;;;4955186;28;20078;-69
2021/05/28 03:45:05;;;;;;;6.18;4.50;;;;;;;;;;4955147;28;20051;-69
2021/05/28 03:47:32;;;;;;;6.30;4.80;;;;;;;;;;4969802;28;20090;-69
2021/05/28 03:49:59;;;;;;;6.80;4.55;;;;;;;;;;4955285;28;20055;-69
2021/05/28 03:52:26;;;;;;;4.90;4.40;;;;;;;;;;4954661;28;20130;-69
2021/05/28 03:54:52;;;;;;;6.18;4.90;;;;;;;;;;4955148;28;20102;-69
2021/05/28 03:57:19;;;;;;;5.00;4.50;;;;;;;;;;4954827;28;20094;-69
2021/05/28 03:59:45;;;;;;;7.10;4.30;;;;;;;;;;4954960;28;20047;-69
2021/05/28 04:02:12;;;;;;;6.43;4.40;;;;;;;;;;4954845;28;20090;-69
2021/05/28 04:04:40;;;;;;;5.93;4.75;;;;;;;;;;4954783;28;20122;-69
2021/05/28 04:07:07;;;;;;;5.13;4.28;;;;;;;;;;4954745;29;20554;-69
2021/05/28 04:09:34;;;;;;;5.38;4.63;;;;;;;;;;4954301;28;20529;-69
2021/05/28 04:12:01;;;;;;;6.65;4.85;;;;;;;;;;4953791;29;20513;-69
2021/05/28 04:14:27;;;;;;;5.47;4.93;;;;;;;;;;4969500;28;20074;-69
2021/05/28 04:16:54;;;;;;;7.07;4.32;;;;;;;;;;4954480;28;20122;-69
2021/05/28 04:19:20;;;;;;;5.10;4.60;;;;;;;;;;4954734;28;20098;-69
2021/05/28 04:21:47;;;;;;;6.80;4.95;;;;;;;;;;4956833;28;20055;-69
2021/05/28 04:24:13;;;;;;;6.18;5.47;;;;;;;;;;4973884;28;20047;-69
2021/05/28 04:26:40;;;;;;;6.05;4.93;;;;;;;;;;4973452;28;20086;-69
2021/05/28 04:29:07;;;;;;;8.52;5.25;;;;;;;;;;4974012;28;20122;-69
2021/05/28 04:31:33;;;;;;;7.43;5.75;;;;;;;;;;4973620;28;20086;-69
2021/05/28 04:34:00;;;;;;;8.60;5.78;;;;;;;;;;4973842;28;20055;-69
2021/05/28 04:36:26;;;;;;;8.95;5.15;;;;;;;;;;4977668;28;20038;-69
2021/05/28 04:38:53;;;;;;;5.60;4.68;;;;;;;;;;4993077;28;20148;-69
2021/05/28 04:41:19;;;;;;;6.55;4.75;;;;;;;;;;4992883;28;20078;-69
2021/05/28 04:43:46;;;;;;;7.05;5.35;;;;;;;;;;4992994;28;20493;-69
2021/05/28 04:46:13;;;;;;;6.93;5.18;;;;;;;;;;4992510;28;20497;-69
2021/05/28 04:48:39;;;;;;;6.72;4.97;;;;;;;;;;4992856;28;20402;-69
2021/05/28 04:51:06;;;;;;;6.40;4.75;;;;;;;;;;4992772;28;20462;-69
2021/05/28 04:53:33;;;;;;;6.43;5.22;;;;;;;;;;4992619;28;20089;-69
2021/05/28 04:55:59;;;;;;;5.80;5.20;;;;;;;;;;4992588;28;20093;-69
2021/05/28 04:58:26;;;;;;;7.10;5.07;;;;;;;;;;4992484;28;20448;-69
2021/05/28 05:00:52;;;;;;;9.95;5.85;;;;;;;;;;4992639;28;20078;-69
2021/05/28 05:03:19;;;;;;;8.00;6.18;;;;;;;;;;4991780;28;20058;-69
2021/05/28 05:05:45;;;;;;;8.40;6.13;;;;;;;;;;4992422;28;20078;-69
2021/05/28 05:08:12;;;;;;;6.75;5.90;;;;;;;;;;4991961;28;20146;-69
2021/05/28 05:10:38;;;;;;;7.70;5.63;;;;;;;;;;4977739;28;20110;-69
2021/05/28 05:13:12;;;;;;;7.72;5.15;;;;;;;;;;4992345;28;20532;-68
2021/05/28 05:15:39;;;;;;;7.05;6.30;;;;;;;;;;4992127;28;20082;-69
2021/05/28 05:18:06;;;;;;;8.93;5.72;;;;;;;;;;4992462;28;20101;-69
2021/05/28 05:20:34;;;;;;;7.47;6.53;;;;;;;;;;4987505;28;20078;-69
2021/05/28 05:23:02;;;;;;;8.77;6.00;;;;;;;;;;4972873;28;20101;-68
2021/05/28 05:25:28;;;;;;;8.63;6.38;;;;;;;;;;4970447;28;20113;-69
2021/05/28 05:27:55;;;;;;;11.25;7.32;;;;;;;;;;4970807;28;20094;-69
2021/05/28 05:30:21;;;;;;;8.10;7.07;;;;;;;;;;4970688;28;20097;-69
2021/05/28 05:32:48;;;;;;;8.52;7.22;;;;;;;;;;4970968;28;20054;-69
2021/05/28 05:35:15;;;;;;;8.40;6.88;;;;;;;;;;4970757;28;20151;-70
2021/05/28 05:37:42;;;;;;;8.20;6.40;;;;;;;;;;4970263;28;20074;-70
2021/05/28 05:40:09;;;;;;;9.52;6.13;;;;;;;;;;4969656;28;20082;-70
2021/05/28 05:42:37;;;;;;;11.52;6.57;;;;;;;;;;4970635;28;20479;-71
2021/05/28 05:45:05;;;;;;;7.30;5.63;;;;;;;;;;4969220;28;20137;-71
2021/05/28 05:47:32;;;;;;;9.73;5.50;;;;;;;;;;4954414;28;20086;-71
2021/05/28 05:49:59;;;;;;;8.55;5.78;;;;;;;;;;4990348;28;20141;-71
2021/05/28 05:52:26;;;;;;;7.15;6.30;;;;;;;;;;5004433;28;20108;-71
2021/05/28 05:54:52;;;;;;;9.07;6.68;;;;;;;;;;4990138;28;20092;-70
2021/05/28 05:57:23;;;;;;;6.78;5.95;;;;;;;;;;4989972;28;20486;-71
2021/05/28 05:59:49;;;;;;;13.07;6.97;;;;;;;;;;4989879;28;20081;-70
2021/05/28 06:02:16;;;;;;;9.27;5.95;;;;;;;;;;4988757;28;20097;-71
2021/05/28 06:04:42;;;;;;;8.88;6.22;;;;;;;;;;4989443;28;20089;-71
2021/05/28 06:07:09;;;;;;;8.20;6.57;;;;;;;;;;4989681;28;20133;-70
2021/05/28 06:09:35;;;;;;;9.07;6.43;;;;;;;;;;5004876;28;20050;-70
2021/05/28 06:12:02;;;;;;;9.13;6.10;;;;;;;;;;4989882;28;20678;-70
2021/05/28 06:14:29;;;;;;;13.07;6.65;;;;;;;;;;4991189;28;20504;-70
2021/05/28 06:16:55;;;;;;;7.82;6.25;;;;;;;;;;4992892;28;20480;-70
2021/05/28 06:19:22;;;;;;;9.93;5.93;;;;;;;;;;4993424;28;20101;-70
2021/05/28 06:21:49;;;;;;;6.60;5.32;;;;;;;;;;4992666;28;20085;-69
2021/05/28 06:24:16;;;;;;;7.47;5.13;;;;;;;;;;4993399;28;20485;-71
2021/05/28 06:26:42;;;;;;;5.88;4.82;;;;;;;;;;4992864;28;20047;-72
2021/05/28 06:29:10;;;;;;;8.95;6.15;;;;;;;;;;4993260;28;20145;-72
2021/05/28 06:31:37;;;;;;;6.85;5.45;;;;;;;;;;4992814;28;20481;-71
2021/05/28 06:34:04;;;;;;;10.38;5.63;;;;;;;;;;4993106;28;20101;-70
2021/05/28 06:36:31;;;;;;;10.68;6.43;;;;;;;;;;4991903;28;20437;-71
2021/05/28 06:38:58;;;;;;;11.90;6.45;;;;;;;;;;4992311;28;20502;-71
2021/05/28 06:41:24;;;;;;;10.57;6.68;;;;;;;;;;4994066;28;20046;-71
2021/05/28 06:43:51;;;;;;;10.95;7.63;;;;;;;;;;4992727;28;20081;-71
2021/05/28 06:46:17;;;;;;;7.43;6.20;;;;;;;;;;4991357;28;20085;-72
2021/05/28 06:48:44;;;;;;;8.13;6.07;;;;;;;;;;4991996;28;20124;-70
2021/05/28 06:51:11;;;;;;;10.30;7.15;;;;;;;;;;4991438;28;20461;-71
2021/05/28 06:53:37;;;;;;;8.25;6.72;;;;;;;;;;5007636;28;20054;-71
2021/05/28 06:56:04;;;;;;;10.00;6.03;;;;;;;;;;4991579;28;20094;-71
2021/05/28 06:58:31;;;;;;;7.22;5.68;;;;;;;;;;4992444;28;20093;-71
2021/05/28 07:00:57;;;;;;;7.78;5.90;;;;;;;;;;4994477;28;20098;-71
2021/05/28 07:03:25;;;;;;;9.10;6.22;;;;;;;;;;4993510;28;20058;-72
2021/05/28 07:05:52;;;;;;;11.90;8.20;;;;;;;;;;4978744;28;20089;-74
2021/05/28 07:08:18;;;;;;;9.55;5.75;;;;;;;;;;4975420;28;20109;-75
2021/05/28 07:10:45;;;;;;;9.68;6.65;;;;;;;;;;4968373;28;20094;-75
2021/05/28 07:13:12;;;;;;;5.15;4.32;;;;;;;;;;4970034;28;20176;-74
2021/05/28 07:19:08;;;;;;;5.88;4.47;;;;;;;;;;4981385;28;20057;-78
2021/05/28 07:21:34;;;;;;;7.53;4.60;;;;;;;;;;4971119;28;20078;-78
2021/05/28 07:24:01;;;;;;;7.85;4.28;;;;;;;;;;4991413;28;20174;-79
2021/05/28 07:26:29;;;;;;;6.07;4.53;;;;;;;;;;4957449;28;20051;-83
2021/05/28 07:28:56;;;;;;;6.38;4.43;;;;;;;;;;4975039;28;20082;-80
2021/05/28 07:31:24;;;;;;;5.72;4.32;;;;;;;;;;4977496;28;20502;-79
2021/05/28 07:33:51;;;;;;;7.85;5.28;;;;;;;;;;4970268;28;20115;-81
2021/05/28 07:36:17;;;;;;;8.73;5.90;;;;;;;;;;4976334;28;20137;-77
2021/05/28 07:38:44;;;;;;;7.20;5.50;;;;;;;;;;4990206;28;20050;-82
2021/05/28 07:41:11;;;;;;;5.85;5.10;;;;;;;;;;4973346;28;20090;-78
2021/05/28 07:43:38;;;;;;;10.25;6.40;;;;;;;;;;4972646;28;20047;-74
2021/05/28 07:46:05;;;;;;;8.95;5.47;;;;;;;;;;4973649;28;20050;-77
2021/05/28 07:48:31;;;;;;;9.35;5.97;;;;;;;;;;4972150;28;20054;-75
2021/05/28 07:50:58;;;;;;;6.13;5.30;;;;;;;;;;4973591;28;20082;-75
2021/05/28 07:53:26;;;;;;;9.23;5.25;;;;;;;;;;4968693;28;20430;-73
2021/05/28 07:56:05;;;;;;;5.93;4.72;;;;;;;;;;4984934;28;20092;-72
2021/05/28 07:58:34;;;;;;;5.80;4.50;;;;;;;;;;4993646;28;20096;-69
2021/05/28 08:01:01;;;;;;;5.30;4.60;;;;;;;;;;4993647;28;20089;-69
2021/05/28 08:03:28;;;;;;;6.97;4.63;;;;;;;;;;4993328;28;20469;-69
2021/05/28 08:05:55;;;;;;;6.28;5.32;;;;;;;;;;4993577;28;20054;-69
2021/05/28 08:08:26;;;;;;;5.40;4.03;;;;;;;;;;4993435;28;20078;-69
2021/05/28 08:10:53;;;;;;;7.60;5.10;;;;;;;;;;4993336;28;20089;-69
2021/05/28 08:13:19;;;;;;;6.65;4.50;;;;;;;;;;4993169;28;20137;-69
2021/05/28 08:15:47;;;;;;;6.50;4.68;;;;;;;;;;4993153;28;20477;-69
2021/05/28 08:18:14;;;;;;;6.75;5.05;;;;;;;;;;4993532;28;20477;-69
2021/05/28 08:20:42;;;;;;;6.13;4.95;;;;;;;;;;4992219;28;20089;-69
2021/05/28 08:23:08;;;;;;;6.93;4.95;;;;;;;;;;4993205;28;20501;-69
2021/05/28 08:25:35;;;;;;;8.10;5.68;;;;;;;;;;4991641;28;20050;-69
2021/05/28 08:28:02;;;;;;;5.90;4.30;;;;;;;;;;4993098;28;20130;-69
2021/05/28 08:30:28;;;;;;;8.18;4.93;;;;;;;;;;4993073;28;20470;-69
2021/05/28 08:32:55;;;;;;;9.75;5.03;;;;;;;;;;4993162;28;20078;-69
2021/05/28 08:35:21;;;;;;;8.10;5.28;;;;;;;;;;4992796;28;20053;-69
2021/05/28 08:37:48;;;;;;;9.30;4.80;;;;;;;;;;4993066;28;20054;-69
2021/05/28 08:40:16;;;;;;;9.15;5.07;;;;;;;;;;4993040;28;20054;-69
2021/05/28 08:42:43;;;;;;;5.40;4.65;;;;;;;;;;4992893;28;20564;-69
2021/05/28 08:45:11;;;;;;;5.20;4.60;;;;;;;;;;4994242;23;20055;-70
2021/05/28 08:47:41;;;;;;;6.97;4.80;;;;;;;;;;4933815;29;20082;-71
2021/05/28 08:50:09;;;;;;;7.50;5.28;;;;;;;;;;4934023;29;20055;-70
2021/05/28 08:52:36;;;;;;;5.53;4.45;;;;;;;;;;4933940;29;20502;-70
2021/05/28 08:55:04;;;;;;;7.55;4.90;;;;;;;;;;4956089;28;20051;-71
2021/05/28 08:57:30;;;;;;;6.72;5.22;;;;;;;;;;4952952;29;20414;-70
2021/05/28 08:59:57;;;;;;;9.63;5.28;;;;;;;;;;4954071;29;20548;-70
2021/05/28 09:02:37;;;;;;;6.95;5.10;;;;;;;;;;4954161;29;20081;-71
2021/05/28 09:05:07;;;;;;;5.90;4.50;;;;;;;;;;4954106;28;20051;-71
2021/05/28 09:07:33;;;;;;;4.70;3.85;;;;;;;;;;4952448;29;20106;-71
2021/05/28 09:10:00;;;;;;;5.25;4.75;;;;;;;;;;4952711;29;20097;-70
2021/05/28 09:12:44;;;;;;;6.53;3.88;;;;;;;;;;4952872;29;20577;-70
2021/05/28 09:15:17;;;;;;;5.57;4.00;;;;;;;;;;4968532;28;20105;-71
2021/05/28 09:17:51;;;;;;;5.35;3.88;;;;;;;;;;4953570;28;20102;-71
2021/05/28 09:20:18;;;;;;;6.07;4.85;;;;;;;;;;4968502;28;20051;-70
2021/05/28 09:22:45;;;;;;;6.80;4.68;;;;;;;;;;4952677;29;20459;-70
2021/05/28 09:25:11;;;;;;;5.72;3.65;;;;;;;;;;4968524;28;20079;-71
2021/05/28 09:27:40;;;;;;;5.72;3.88;;;;;;;;;;4952274;29;20134;-71
2021/05/28 09:30:11;;;;;;;6.72;4.50;;;;;;;;;;4953797;28;20051;-71
2021/05/28 09:32:39;;;;;;;5.10;4.20;;;;;;;;;;4952616;29;20051;-71
2021/05/28 09:35:12;;;;;;;7.95;4.80;;;;;;;;;;4952345;29;20048;-72
2021/05/28 09:37:41;;;;;;;5.30;3.70;;;;;;;;;;4952178;29;20051;-70
2021/05/28 09:40:11;;;;;;;4.88;3.92;;;;;;;;;;4953597;28;20052;-70
2021/05/28 09:42:47;;;;;;;4.55;3.25;;;;;;;;;;4952343;29;20110;-70
2021/05/28 09:45:43;;;;;;;5.10;3.95;;;;;;;;;;4953346;28;20454;-71
2021/05/28 09:48:15;;;;;;;7.20;4.43;;;;;;;;;;4949040;28;20043;-70
2021/05/28 09:50:53;;;;;;;6.40;3.33;;;;;;;;;;4956830;29;20418;-71
2021/05/28 09:53:30;;;;;;;6.13;3.17;;;;;;;;;;4972107;28;20051;-70
2021/05/28 09:56:20;;;;;;;3.22;2.70;;;;;;;;;;4972212;28;20134;-71
2021/05/28 09:59:01;;;;;;;3.10;2.80;;;;;;;;;;4956181;29;20048;-71
2021/05/28 10:01:28;;;;;;;4.75;3.30;;;;;;;;;;4955991;29;20417;-70
2021/05/28 10:04:08;;;;;;;4.65;3.38;;;;;;;;;;4956096;29;20056;-70
2021/05/28 10:06:36;;;;;;;6.03;3.20;;;;;;;;;;4955591;28;20491;-71
2021/05/28 10:09:07;;;;;;;3.15;2.72;;;;;;;;;;4957059;28;20086;-70
2021/05/28 10:11:36;;;;;;;2.95;2.67;;;;;;;;;;4957009;28;20110;-70
2021/05/28 10:14:03;;;;;;;3.75;3.05;;;;;;;;;;4971613;28;20627;-71
2021/05/28 10:16:34;;;;;;;6.57;3.28;;;;;;;;;;4956505;28;20423;-70
2021/05/28 10:19:00;;;;;;;5.45;2.85;;;;;;;;;;4957144;28;20130;-71
2021/05/28 10:21:27;;;;;;;4.97;3.40;;;;;;;;;;4956870;29;20070;-71
2021/05/28 10:23:54;;;;;;;5.78;2.95;;;;;;;;;;4957171;29;20083;-70
2021/05/28 10:26:31;;;;;;;4.35;3.25;;;;;;;;;;4955640;28;20051;-70
2021/05/28 10:28:58;;;;;;;3.95;2.95;;;;;;;;;;4955932;29;20107;-71
2021/05/28 10:31:50;;;;;;;4.82;3.05;;;;;;;;;;4956049;29;20051;-70
2021/05/28 10:34:18;;;;;;;4.13;2.80;;;;;;;;;;4971630;28;20487;-70
2021/05/28 10:36:45;;;;;;;4.15;3.10;;;;;;;;;;4971322;28;20710;-71
2021/05/28 10:39:14;;;;;;;4.45;2.78;;;;;;;;;;4955683;29;20126;-70
2021/05/28 10:41:48;;;;;;;2.33;1.80;;;;;;;;;;4956624;28;20090;-70
2021/05/28 10:44:19;;;;;;;1.65;1.55;;;;;;;;;;4955271;28;20098;-70
2021/05/28 10:46:58;;;;;;;4.05;1.60;;;;;;;;;;4970720;28;20118;-70
2021/05/28 10:49:36;;;;;;;1.63;1.17;;;;;;;;;;4955473;29;20445;-71
2021/05/28 10:52:04;;;;;;;3.83;1.58;;;;;;;;;;4955288;29;20091;-70
2021/05/28 10:54:32;;;;;;;1.88;1.67;;;;;;;;;;4955065;28;20114;-71
2021/05/28 10:57:23;;;;;;;2.08;1.52;;;;;;;;;;4970915;28;20082;-71
2021/05/28 10:59:53;;;;;;;1.55;1.30;;;;;;;;;;4970898;28;20083;-71
2021/05/28 11:02:44;;;;;;;3.60;2.10;;;;;;;;;;4938422;29;20094;-71
2021/05/28 11:05:11;;;;;;;2.75;2.55;;;;;;;;;;4956053;28;20098;-71
2021/05/28 11:07:42;;;;;;;4.32;2.42;;;;;;;;;;4970670;28;20093;-70
2021/05/28 11:10:23;;;;;;;3.33;2.60;;;;;;;;;;4954874;29;20510;-71
2021/05/28 11:12:50;;;;;;;3.78;3.08;;;;;;;;;;4938974;29;20525;-71
2021/05/28 11:15:28;;;;;;;3.85;2.80;;;;;;;;;;4970680;28;20050;-71
2021/05/28 11:17:55;;;;;;;3.78;2.65;;;;;;;;;;4954890;29;20047;-71
2021/05/28 11:20:33;;;;;;;3.35;2.58;;;;;;;;;;4955853;28;20051;-71
2021/05/28 11:23:06;;;;;;;3.70;2.58;;;;;;;;;;4954926;29;20074;-71
2021/05/28 11:25:35;;;;;;;;;;;;;;;;;;4954797;28;20055;-71
2021/05/28 11:28:06;;;;;;;4.15;2.50;;;;;;;;;;4970397;28;19926;-71
2021/05/28 11:30:44;;;;;;;3.83;2.67;;;;;;;;;;4938609;29;20074;-71
2021/05/28 11:33:32;;;;;;;2.55;2.00;;;;;;;;;;4954626;29;20107;-71
2021/05/28 11:36:28;;;;;;;3.60;1.67;;;;;;;;;;4955384;28;20141;-71
2021/05/28 11:38:56;;;;;;;2.35;2.15;;;;;;;;;;4953245;29;20055;-72
2021/05/28 11:41:44;;;;;;;3.17;2.20;;;;;;;;;;4954357;29;20051;-72
2021/05/28 11:44:11;;;;;;;3.03;2.35;;;;;;;;;;4967984;28;20082;-71
2021/05/28 11:46:46;;;;;;;4.40;2.63;;;;;;;;;;4953645;29;20055;-71
2021/05/28 11:49:14;;;;;;;1.95;1.50;;;;;;;;;;4954165;29;20498;-71
2021/05/28 11:51:42;;;;;;;2.00;1.48;;;;;;;;;;4954074;29;20147;-71
2021/05/28 11:54:23;;;;;;;2.15;1.67;;;;;;;;;;4955257;28;20094;-72
2021/05/28 11:57:14;;;;;;;1.98;1.60;;;;;;;;;;4970102;28;20109;-71
2021/05/28 11:59:55;;;;;;;1.10;1.00;;;;;;;;;;4967245;28;20083;-71
2021/05/28 12:02:37;;;;;;;1.25;1.15;;;;;;;;;;4969590;28;20078;-71
2021/05/28 12:05:14;;;;;;;1.85;1.50;;;;;;;;;;4955133;28;20078;-71
2021/05/28 12:07:40;;;;;;;1.48;1.20;;;;;;;;;;4953538;29;20079;-71
2021/05/28 12:10:09;;;;;;;2.30;1.55;;;;;;;;;;4955104;28;20067;-71
2021/05/28 12:12:59;;;;;;;1.73;1.63;;;;;;;;;;4953571;28;20083;-70
2021/05/28 12:15:49;;;;;;;3.55;1.80;;;;;;;;;;4969073;28;20061;-70
2021/05/28 12:18:17;;;;;;;1.70;1.60;;;;;;;;;;4953649;29;20055;-71
2021/05/28 12:20:46;;;;;;;3.08;1.80;;;;;;;;;;4954859;28;20082;-70
2021/05/28 12:23:27;;;;;;;1.85;1.58;;;;;;;;;;4969636;28;20082;-71
2021/05/28 12:26:08;;;;;;;2.83;1.40;;;;;;;;;;4953449;29;20051;-71
2021/05/28 12:28:38;;;;;;;2.55;2.20;;;;;;;;;;4953374;29;20083;-71
2021/05/28 12:31:11;;;;;;;2.53;1.90;;;;;;;;;;4953540;29;20525;-71
2021/05/28 12:33:39;;;;;;;1.92;1.58;;;;;;;;;;4954445;29;20134;-71
2021/05/28 12:36:15;;;;;;;1.70;1.30;;;;;;;;;;4953328;28;20138;-71
2021/05/28 12:38:46;;;;;;;4.32;1.50;;;;;;;;;;4954627;28;20090;-70
2021/05/28 12:41:23;;;;;;;1.67;1.25;;;;;;;;;;4953352;29;20557;-71
2021/05/28 12:43:54;;;;;;;2.50;1.77;;;;;;;;;;4954384;28;20492;-71
2021/05/28 12:46:35;;;;;;;1.60;1.50;;;;;;;;;;4936822;29;20110;-71
2021/05/28 12:49:12;;;;;;;3.53;1.90;;;;;;;;;;4953143;29;20047;-71
2021/05/28 12:51:47;;;;;;;2.20;1.88;;;;;;;;;;4953038;29;20097;-71
2021/05/28 12:54:25;;;;;;;2.20;1.77;;;;;;;;;;4969040;28;20098;-71
2021/05/28 12:56:54;;;;;;;2.50;2.00;;;;;;;;;;4953063;29;20055;-71
2021/05/28 12:59:22;;;;;;;2.25;2.05;;;;;;;;;;4968818;28;20047;-71
2021/05/28 13:01:53;;;;;;;2.55;1.42;;;;;;;;;;4953012;28;20075;-71
2021/05/28 13:04:21;;;;;;;2.35;1.60;;;;;;;;;;4952678;28;20482;-71
2021/05/28 13:06:55;;;;;;;1.80;1.60;;;;;;;;;;4952601;29;20051;-71
2021/05/28 13:09:24;;;;;;;3.03;1.48;;;;;;;;;;4952678;29;20498;-71
2021/05/28 13:11:57;;;;;;;1.33;1.17;;;;;;;;;;4952894;29;20055;-71
2021/05/28 13:14:38;;;;;;;2.08;1.10;;;;;;;;;;4953811;28;20047;-71
2021/05/28 13:17:31;;;;;;;3.97;1.20;;;;;;;;;;4953629;28;20075;-71
2021/05/28 13:19:58;;;;;;;2.20;1.63;;;;;;;;;;4953333;28;20051;-71
2021/05/28 13:22:44;;;;;;;1.73;1.08;;;;;;;;;;4953907;28;20114;-72
2021/05/28 13:25:30;;;;;;;4.40;1.30;;;;;;;;;;4951985;28;20090;-72
2021/05/28 13:28:23;;;;;;;2.67;1.20;;;;;;;;;;4952729;29;20094;-72
2021/05/28 13:30:53;;;;;;;1.20;1.10;;;;;;;;;;4952688;29;20051;-72
2021/05/28 13:33:31;;;;;;;1.70;1.20;;;;;;;;;;4952548;29;20403;-72
2021/05/28 13:36:14;;;;;;;0.93;0.90;;;;;;;;;;4952342;28;20498;-72
2021/05/28 13:38:57;;;;;;;1.23;1.13;;;;;;;;;;4966100;28;20058;-72
2021/05/28 13:41:35;;;;;;;3.42;1.48;;;;;;;;;;4952581;29;20051;-72
2021/05/28 13:44:03;;;;;;;1.55;0.90;;;;;;;;;;4952608;29;20094;-72
2021/05/28 13:46:32;;;;;;;1.73;0.95;;;;;;;;;;4952117;29;20110;-71
2021/05/28 13:49:00;;;;;;;1.63;1.10;;;;;;;;;;4952592;29;20262;-71
2021/05/28 13:51:26;;;;;;;1.10;1.10;;;;;;;;;;4952429;29;20052;-71
2021/05/28 13:53:53;;;;;;;1.55;1.10;;;;;;;;;;4968342;28;20137;-71
2021/05/28 13:56:19;;;;;;;1.33;1.20;;;;;;;;;;4952215;29;20484;-71
2021/05/28 13:58:46;;;;;;;1.27;1.05;;;;;;;;;;4953443;29;20082;-71
2021/05/28 14:01:12;;;;;;;1.55;1.10;;;;;;;;;;4952375;29;20094;-71
2021/05/28 14:03:39;;;;;;;0.88;0.88;;;;;;;;;;4952164;29;20074;-71
2021/05/28 14:06:06;;;;;;;2.58;1.08;;;;;;;;;;4952025;29;20067;-71
2021/05/28 14:08:32;;;;;;;2.53;1.40;;;;;;;;;;4968008;28;20071;-71
2021/05/28 14:10:59;;;;;;;2.55;1.00;;;;;;;;;;4953442;29;20107;-71
2021/05/28 14:13:27;;;;;;;1.55;1.33;;;;;;;;;;4952169;29;20396;-71
2021/05/28 14:15:54;;;;;;;1.30;1.15;;;;;;;;;;4953408;28;20624;-71
2021/05/28 14:18:20;;;;;;;2.15;1.10;;;;;;;;;;4953330;29;20058;-71
2021/05/28 14:20:47;;;;;;;3.42;1.10;;;;;;;;;;4953320;29;20055;-71
2021/05/28 14:23:14;;;;;;;1.05;0.98;;;;;;;;;;4953323;29;20079;-71
2021/05/28 14:25:40;;;;;;;2.03;0.95;;;;;;;;;;4936048;29;20090;-71
2021/05/28 14:28:07;;;;;;;2.30;0.98;;;;;;;;;;4968119;28;20116;-71
2021/05/28 14:30:35;;;;;;;1.58;1.10;;;;;;;;;;4951928;29;20055;-71
2021/05/28 14:33:02;;;;;;;2.05;0.90;;;;;;;;;;4968054;28;20051;-71
2021/05/28 14:35:29;;;;;;;0.88;0.70;;;;;;;;;;4952945;28;20055;-70
2021/05/28 14:37:55;;;;;;;1.90;0.90;;;;;;;;;;4955921;29;20475;-71
2021/05/28 14:40:23;;;;;;;1.33;0.50;;;;;;;;;;4955896;29;20082;-70
2021/05/28 14:42:50;;;;;;;0.52;0.52;;;;;;;;;;4971577;28;20094;-70
2021/05/28 14:45:17;;;;;;;1.15;0.70;;;;;;;;;;4963714;23;20055;-72
2021/05/28 14:47:44;;;;;;;0.80;0.80;;;;;;;;;;4974246;28;20074;-72
2021/05/28 14:50:12;;;;;;;2.58;0.98;;;;;;;;;;4975536;28;20489;-69
2021/05/28 14:52:39;;;;;;;1.23;0.80;;;;;;;;;;4975482;28;20085;-69
2021/05/28 14:55:07;;;;;;;1.20;0.85;;;;;;;;;;4975487;28;20494;-69
2021/05/28 14:57:35;;;;;;;1.75;0.90;;;;;;;;;;4975313;28;20058;-69
2021/05/28 15:00:09;;;;;;;1.33;0.98;;;;;;;;;;4975534;28;20458;-69